createdAt,value
2018-12-27T00:00:08.486Z,4.42
2018-12-27T00:01:06.194Z,4.41
2018-12-27T00:02:05.665Z,4.4
2018-12-27T00:03:05.638Z,4.41
2018-12-27T00:04:05.655Z,4.39
2018-12-27T00:05:05.676Z,4.42
2018-12-27T00:06:06.949Z,4.43
2018-12-27T00:07:06.176Z,4.42
2018-12-27T00:08:05.973Z,4.42
2018-12-27T00:09:05.644Z,4.43
2018-12-27T00:10:05.631Z,4.41
2018-12-27T00:11:05.618Z,4.42
2018-12-27T00:12:05.763Z,4.43
2018-12-27T00:13:05.612Z,4.44
2018-12-27T00:14:05.637Z,4.45
2018-12-27T00:15:05.649Z,4.45
2018-12-27T00:16:05.808Z,4.45
2018-12-27T00:17:05.846Z,4.46
2018-12-27T00:18:05.888Z,4.46
2018-12-27T00:19:05.817Z,4.45
2018-12-27T00:20:05.696Z,4.45
2018-12-27T00:21:05.672Z,4.46
2018-12-27T00:22:05.853Z,4.46
2018-12-27T00:23:05.636Z,4.47
2018-12-27T00:24:06.054Z,4.46
2018-12-27T00:25:05.599Z,4.45
2018-12-27T00:26:05.810Z,4.44
2018-12-27T00:27:05.649Z,4.44
2018-12-27T00:28:06.414Z,4.43
2018-12-27T00:29:05.694Z,4.44
2018-12-27T00:30:05.632Z,4.44
2018-12-27T00:31:05.608Z,4.45
2018-12-27T00:32:05.716Z,4.48
2018-12-27T00:33:05.940Z,4.48
2018-12-27T00:34:06.108Z,4.47
2018-12-27T00:35:05.743Z,4.48
2018-12-27T00:36:05.783Z,4.46
2018-12-27T00:37:05.811Z,4.45
2018-12-27T00:38:05.794Z,4.45
2018-12-27T00:39:05.733Z,4.44
2018-12-27T00:40:06.105Z,4.43
2018-12-27T00:41:05.712Z,4.43
2018-12-27T00:42:05.760Z,4.43
2018-12-27T00:43:05.959Z,4.43
2018-12-27T00:44:07.918Z,4.44
2018-12-27T00:45:06.123Z,4.44
2018-12-27T00:46:05.831Z,4.43
2018-12-27T00:47:05.643Z,4.43
2018-12-27T00:48:05.767Z,4.43
2018-12-27T00:49:05.631Z,4.45
2018-12-27T00:50:05.802Z,4.43
2018-12-27T00:51:05.784Z,4.42
2018-12-27T00:52:05.563Z,4.41
2018-12-27T00:53:05.655Z,4.42
2018-12-27T00:54:05.725Z,4.42
2018-12-27T00:55:05.629Z,4.42
2018-12-27T00:56:05.639Z,4.43
2018-12-27T00:57:05.662Z,4.42
2018-12-27T00:58:05.666Z,4.41
2018-12-27T00:59:05.630Z,4.4
2018-12-27T01:00:05.626Z,4.39
2018-12-27T01:01:05.773Z,4.4
2018-12-27T01:02:05.867Z,4.4
2018-12-27T01:03:11.734Z,4.41
2018-12-27T01:04:05.966Z,4.42
2018-12-27T01:05:05.782Z,4.41
2018-12-27T01:06:05.831Z,4.41
2018-12-27T01:07:05.820Z,4.42
2018-12-27T01:08:05.555Z,4.41
2018-12-27T01:09:05.680Z,4.4
2018-12-27T01:10:05.564Z,4.4
2018-12-27T01:11:05.797Z,4.4
2018-12-27T01:12:05.565Z,4.4
2018-12-27T01:13:05.572Z,4.4
2018-12-27T01:14:05.871Z,4.4
2018-12-27T01:15:05.796Z,4.41
2018-12-27T01:16:05.597Z,4.4
2018-12-27T01:17:05.537Z,4.41
2018-12-27T01:18:05.609Z,4.41
2018-12-27T01:19:05.719Z,4.42
2018-12-27T01:20:05.689Z,4.43
2018-12-27T01:21:05.617Z,4.43
2018-12-27T01:22:05.564Z,4.44
2018-12-27T01:23:06.421Z,4.44
2018-12-27T01:24:05.610Z,4.44
2018-12-27T01:25:05.798Z,4.45
2018-12-27T01:26:05.726Z,4.44
2018-12-27T01:27:05.668Z,4.44
2018-12-27T01:28:05.691Z,4.44
2018-12-27T01:29:05.585Z,4.46
2018-12-27T01:30:06.406Z,4.43
2018-12-27T01:31:05.904Z,4.44
2018-12-27T01:32:05.776Z,4.46
2018-12-27T01:33:05.594Z,4.45
2018-12-27T01:34:05.580Z,4.44
2018-12-27T01:35:05.520Z,4.45
2018-12-27T01:36:05.661Z,4.45
2018-12-27T01:37:05.565Z,4.45
2018-12-27T01:38:05.577Z,4.45
2018-12-27T01:39:05.556Z,4.45
2018-12-27T01:40:05.568Z,4.43
2018-12-27T01:41:05.525Z,4.46
2018-12-27T01:42:05.602Z,4.45
2018-12-27T01:43:05.584Z,4.45
2018-12-27T01:44:05.823Z,4.44
2018-12-27T01:45:05.513Z,4.43
2018-12-27T01:46:05.590Z,4.43
2018-12-27T01:47:05.489Z,4.45
2018-12-27T01:48:05.537Z,4.45
2018-12-27T01:49:05.575Z,4.45
2018-12-27T01:50:05.832Z,4.45
2018-12-27T01:51:05.554Z,4.44
2018-12-27T01:52:05.659Z,4.45
2018-12-27T01:53:05.497Z,4.46
2018-12-27T01:54:05.661Z,4.44
2018-12-27T01:55:05.511Z,4.44
2018-12-27T01:56:05.607Z,4.44
2018-12-27T01:57:05.583Z,4.43
2018-12-27T01:58:05.608Z,4.44
2018-12-27T01:59:05.625Z,4.43
2018-12-27T02:00:05.722Z,4.43
2018-12-27T02:01:06.075Z,4.44
2018-12-27T02:02:05.478Z,4.42
2018-12-27T02:03:05.486Z,4.42
2018-12-27T02:04:05.986Z,4.43
2018-12-27T02:05:05.822Z,4.44
2018-12-27T02:06:05.527Z,4.43
2018-12-27T02:07:05.621Z,4.44
2018-12-27T02:08:06.366Z,4.43
2018-12-27T02:09:05.714Z,4.43
2018-12-27T02:10:05.961Z,4.44
2018-12-27T02:11:06.123Z,4.43
2018-12-27T02:12:05.718Z,4.44
2018-12-27T02:13:05.590Z,4.44
2018-12-27T02:14:05.868Z,4.47
2018-12-27T02:15:05.723Z,4.46
2018-12-27T02:16:05.532Z,4.47
2018-12-27T02:17:05.517Z,4.47
2018-12-27T02:18:05.688Z,4.45
2018-12-27T02:19:05.694Z,4.45
2018-12-27T02:20:05.567Z,4.45
2018-12-27T02:21:05.891Z,4.46
2018-12-27T02:22:05.653Z,4.47
2018-12-27T02:23:06.318Z,4.46
2018-12-27T02:24:05.707Z,4.46
2018-12-27T02:25:05.581Z,4.48
2018-12-27T02:26:05.509Z,4.47
2018-12-27T02:27:05.957Z,4.48
2018-12-27T02:28:05.543Z,4.48
2018-12-27T02:29:05.715Z,4.47
2018-12-27T02:30:05.930Z,4.47
2018-12-27T02:31:05.852Z,4.46
2018-12-27T02:32:05.465Z,4.46
2018-12-27T02:33:06.280Z,4.47
2018-12-27T02:34:05.668Z,4.48
2018-12-27T02:35:05.470Z,4.47
2018-12-27T02:36:05.738Z,4.46
2018-12-27T02:37:05.806Z,4.45
2018-12-27T02:38:05.506Z,4.44
2018-12-27T02:39:05.455Z,4.45
2018-12-27T02:40:06.256Z,4.45
2018-12-27T02:41:05.583Z,4.43
2018-12-27T02:42:05.873Z,4.46
2018-12-27T02:43:05.525Z,4.45
2018-12-27T02:44:05.873Z,4.45
2018-12-27T02:45:06.271Z,4.46
2018-12-27T02:46:06.326Z,4.46
2018-12-27T02:47:05.534Z,4.46
2018-12-27T02:48:05.511Z,4.44
2018-12-27T02:49:05.536Z,4.43
2018-12-27T02:50:05.630Z,4.46
2018-12-27T02:51:05.627Z,4.45
2018-12-27T02:52:05.443Z,4.45
2018-12-27T02:53:05.564Z,4.46
2018-12-27T02:54:05.656Z,4.45
2018-12-27T02:55:05.569Z,4.45
2018-12-27T02:56:05.471Z,4.45
2018-12-27T02:57:05.495Z,4.44
2018-12-27T02:58:05.690Z,4.46
2018-12-27T02:59:05.945Z,4.43
2018-12-27T03:00:05.503Z,4.41
2018-12-27T03:01:05.486Z,4.42
2018-12-27T03:02:05.936Z,4.42
2018-12-27T03:03:05.669Z,4.43
2018-12-27T03:04:05.730Z,4.44
2018-12-27T03:05:05.396Z,4.44
2018-12-27T03:06:05.798Z,4.44
2018-12-27T03:07:05.478Z,4.41
2018-12-27T03:08:05.614Z,4.43
2018-12-27T03:09:05.644Z,4.41
2018-12-27T03:10:05.811Z,4.4
2018-12-27T03:11:05.736Z,4.4
2018-12-27T03:12:05.566Z,4.4
2018-12-27T03:13:05.955Z,4.41
2018-12-27T03:14:05.878Z,4.38
2018-12-27T03:15:06.288Z,4.36
2018-12-27T03:16:05.549Z,4.37
2018-12-27T03:17:05.415Z,4.38
2018-12-27T03:18:05.566Z,4.37
2018-12-27T03:19:05.580Z,4.37
2018-12-27T03:20:05.445Z,4.39
2018-12-27T03:21:05.717Z,4.4
2018-12-27T03:22:05.413Z,4.39
2018-12-27T03:23:05.409Z,4.42
2018-12-27T03:24:05.489Z,4.42
2018-12-27T03:25:05.423Z,4.37
2018-12-27T03:26:05.417Z,4.39
2018-12-27T03:27:05.714Z,4.42
2018-12-27T03:28:05.496Z,4.41
2018-12-27T03:29:05.349Z,4.37
2018-12-27T03:30:05.438Z,4.42
2018-12-27T03:31:05.789Z,4.42
2018-12-27T03:32:05.673Z,4.42
2018-12-27T03:33:05.439Z,4.42
2018-12-27T03:34:05.404Z,4.43
2018-12-27T03:35:05.447Z,4.42
2018-12-27T03:36:05.429Z,4.41
2018-12-27T03:37:05.380Z,4.42
2018-12-27T03:38:05.468Z,4.42
2018-12-27T03:39:05.681Z,4.44
2018-12-27T03:40:05.395Z,4.45
2018-12-27T03:41:05.609Z,4.44
2018-12-27T03:42:05.476Z,4.45
2018-12-27T03:43:05.553Z,4.46
2018-12-27T03:44:05.433Z,4.47
2018-12-27T03:45:05.858Z,4.47
2018-12-27T03:46:05.796Z,4.47
2018-12-27T03:47:05.945Z,4.48
2018-12-27T03:48:05.566Z,4.49
2018-12-27T03:49:05.699Z,4.48
2018-12-27T03:50:05.586Z,4.47
2018-12-27T03:51:05.349Z,4.48
2018-12-27T03:52:05.686Z,4.48
2018-12-27T03:53:05.782Z,4.44
2018-12-27T03:54:05.768Z,4.47
2018-12-27T03:55:05.361Z,4.49
2018-12-27T03:56:05.655Z,4.49
2018-12-27T03:57:05.566Z,4.48
2018-12-27T03:58:05.467Z,4.49
2018-12-27T03:59:05.335Z,4.5
2018-12-27T04:00:06.166Z,4.49
2018-12-27T04:01:05.604Z,4.5
2018-12-27T04:02:05.706Z,4.5
2018-12-27T04:03:05.554Z,4.47
2018-12-27T04:04:05.415Z,4.48
2018-12-27T04:05:05.757Z,4.48
2018-12-27T04:06:05.523Z,4.5
2018-12-27T04:07:05.550Z,4.5
2018-12-27T04:08:05.574Z,4.51
2018-12-27T04:09:05.378Z,4.51
2018-12-27T04:10:05.622Z,4.51
2018-12-27T04:11:05.512Z,4.51
2018-12-27T04:12:05.513Z,4.49
2018-12-27T04:13:06.055Z,4.49
2018-12-27T04:14:05.548Z,4.5
2018-12-27T04:15:05.339Z,4.51
2018-12-27T04:16:05.332Z,4.52
2018-12-27T04:17:05.415Z,4.52
2018-12-27T04:18:05.325Z,4.51
2018-12-27T04:19:05.383Z,4.53
2018-12-27T04:20:05.419Z,4.53
2018-12-27T04:21:05.423Z,4.52
2018-12-27T04:22:05.641Z,4.52
2018-12-27T04:23:05.329Z,4.54
2018-12-27T04:24:05.467Z,4.54
2018-12-27T04:25:06.200Z,4.53
2018-12-27T04:26:05.362Z,4.53
2018-12-27T04:27:05.518Z,4.54
2018-12-27T04:28:05.372Z,4.51
2018-12-27T04:29:05.622Z,4.5
2018-12-27T04:30:05.727Z,4.51
2018-12-27T04:31:06.146Z,4.5
2018-12-27T04:32:06.139Z,4.5
2018-12-27T04:33:05.437Z,4.48
2018-12-27T04:34:10.163Z,4.49
2018-12-27T04:35:05.371Z,4.48
2018-12-27T04:36:05.276Z,4.48
2018-12-27T04:37:05.364Z,4.48
2018-12-27T04:38:05.838Z,4.49
2018-12-27T04:39:05.684Z,4.5
2018-12-27T04:40:05.384Z,4.5
2018-12-27T04:41:06.093Z,4.49
2018-12-27T04:42:05.575Z,4.49
2018-12-27T04:43:05.438Z,4.48
2018-12-27T04:44:05.265Z,4.48
2018-12-27T04:45:05.427Z,4.48
2018-12-27T04:46:05.527Z,4.48
2018-12-27T04:47:05.493Z,4.48
2018-12-27T04:48:05.495Z,4.47
2018-12-27T04:49:05.722Z,4.47
2018-12-27T04:50:05.352Z,4.5
2018-12-27T04:51:05.308Z,4.52
2018-12-27T04:52:05.475Z,4.5
2018-12-27T04:53:05.801Z,4.49
2018-12-27T04:54:05.241Z,4.48
2018-12-27T04:55:05.213Z,4.47
2018-12-27T04:56:05.418Z,4.47
2018-12-27T04:57:05.419Z,4.46
2018-12-27T04:58:05.275Z,4.46
2018-12-27T04:59:05.285Z,4.45
2018-12-27T05:00:06.230Z,4.48
2018-12-27T05:01:05.272Z,4.49
2018-12-27T05:02:05.232Z,4.48
2018-12-27T05:03:05.254Z,4.46
2018-12-27T05:04:05.355Z,4.48
2018-12-27T05:05:05.251Z,4.47
2018-12-27T05:06:05.570Z,4.47
2018-12-27T05:07:05.323Z,4.47
2018-12-27T05:08:05.271Z,4.47
2018-12-27T05:09:05.331Z,4.45
2018-12-27T05:10:05.272Z,4.44
2018-12-27T05:11:05.381Z,4.43
2018-12-27T05:12:05.236Z,4.43
2018-12-27T05:13:05.576Z,4.44
2018-12-27T05:14:05.303Z,4.44
2018-12-27T05:15:05.281Z,4.45
2018-12-27T05:16:05.258Z,4.47
2018-12-27T05:17:05.298Z,4.47
2018-12-27T05:18:05.226Z,4.46
2018-12-27T05:19:05.235Z,4.45
2018-12-27T05:20:05.598Z,4.43
2018-12-27T05:21:05.270Z,4.43
2018-12-27T05:22:05.264Z,4.44
2018-12-27T05:23:05.496Z,4.45
2018-12-27T05:24:05.230Z,4.41
2018-12-27T05:25:05.718Z,4.41
2018-12-27T05:26:05.239Z,4.42
2018-12-27T05:27:05.547Z,4.44
2018-12-27T05:28:05.307Z,4.43
2018-12-27T05:29:05.558Z,4.39
2018-12-27T05:30:05.522Z,4.35
2018-12-27T05:31:05.417Z,4.33
2018-12-27T05:32:05.424Z,4.34
2018-12-27T05:33:05.310Z,4.37
2018-12-27T05:34:05.270Z,4.36
2018-12-27T05:35:05.325Z,4.38
2018-12-27T05:36:05.232Z,4.39
2018-12-27T05:37:05.734Z,4.37
2018-12-27T05:38:05.707Z,4.38
2018-12-27T05:39:05.577Z,4.4
2018-12-27T05:40:05.564Z,4.39
2018-12-27T05:41:05.244Z,4.4
2018-12-27T05:42:05.323Z,4.4
2018-12-27T05:43:05.534Z,4.4
2018-12-27T05:44:05.508Z,4.41
2018-12-27T05:45:05.821Z,4.4
2018-12-27T05:46:05.286Z,4.41
2018-12-27T05:47:05.651Z,4.39
2018-12-27T05:48:05.245Z,4.4
2018-12-27T05:49:05.473Z,4.4
2018-12-27T05:50:05.410Z,4.4
2018-12-27T05:51:05.248Z,4.41
2018-12-27T05:52:05.256Z,4.41
2018-12-27T05:53:05.179Z,4.41
2018-12-27T05:54:05.270Z,4.41
2018-12-27T05:55:05.323Z,4.41
2018-12-27T05:56:05.415Z,4.41
2018-12-27T05:57:05.446Z,4.39
2018-12-27T05:58:05.308Z,4.4
2018-12-27T05:59:05.179Z,4.4
2018-12-27T06:00:05.321Z,4.4
2018-12-27T06:01:05.534Z,4.4
2018-12-27T06:02:05.184Z,4.41
2018-12-27T06:03:05.686Z,4.41
2018-12-27T06:04:05.540Z,4.41
2018-12-27T06:05:05.562Z,4.41
2018-12-27T06:06:05.292Z,4.42
2018-12-27T06:07:05.408Z,4.41
2018-12-27T06:08:05.228Z,4.41
2018-12-27T06:09:05.345Z,4.4
2018-12-27T06:10:05.120Z,4.38
2018-12-27T06:11:05.380Z,4.41
2018-12-27T06:12:05.163Z,4.41
2018-12-27T06:13:05.272Z,4.41
2018-12-27T06:14:05.322Z,4.42
2018-12-27T06:15:05.173Z,4.41
2018-12-27T06:16:05.537Z,4.4
2018-12-27T06:17:05.401Z,4.4
2018-12-27T06:18:05.345Z,4.41
2018-12-27T06:19:05.351Z,4.42
2018-12-27T06:20:05.120Z,4.42
2018-12-27T06:21:05.113Z,4.41
2018-12-27T06:22:05.134Z,4.39
2018-12-27T06:23:05.452Z,4.41
2018-12-27T06:24:05.288Z,4.43
2018-12-27T06:25:05.337Z,4.45
2018-12-27T06:26:05.183Z,4.44
2018-12-27T06:27:05.408Z,4.44
2018-12-27T06:28:05.111Z,4.44
2018-12-27T06:29:05.614Z,4.44
2018-12-27T06:30:05.240Z,4.46
2018-12-27T06:31:05.597Z,4.45
2018-12-27T06:32:05.362Z,4.46
2018-12-27T06:33:05.443Z,4.45
2018-12-27T06:34:05.320Z,4.46
2018-12-27T06:35:05.398Z,4.45
2018-12-27T06:36:05.317Z,4.45
2018-12-27T06:37:05.531Z,4.43
2018-12-27T06:38:05.144Z,4.43
2018-12-27T06:39:05.137Z,4.43
2018-12-27T06:40:05.178Z,4.44
2018-12-27T06:41:05.198Z,4.44
2018-12-27T06:42:05.208Z,4.46
2018-12-27T06:43:05.166Z,4.45
2018-12-27T06:44:05.401Z,4.44
2018-12-27T06:45:05.263Z,4.44
2018-12-27T06:46:05.426Z,4.45
2018-12-27T06:47:05.142Z,4.43
2018-12-27T06:48:05.392Z,4.45
2018-12-27T06:49:05.244Z,4.45
2018-12-27T06:50:05.160Z,4.46
2018-12-27T06:51:05.271Z,4.46
2018-12-27T06:52:05.251Z,4.46
2018-12-27T06:53:05.477Z,4.44
2018-12-27T06:54:05.292Z,4.45
2018-12-27T06:55:05.133Z,4.46
2018-12-27T06:56:05.305Z,4.46
2018-12-27T06:57:05.472Z,4.48
2018-12-27T06:58:05.125Z,4.47
2018-12-27T06:59:05.234Z,4.46
2018-12-27T07:00:05.697Z,4.46
2018-12-27T07:01:05.587Z,4.46
2018-12-27T07:02:05.957Z,4.46
2018-12-27T07:03:05.093Z,4.46
2018-12-27T07:04:05.465Z,4.47
2018-12-27T07:05:05.330Z,4.46
2018-12-27T07:06:05.263Z,4.46
2018-12-27T07:07:05.583Z,4.45
2018-12-27T07:08:05.091Z,4.45
2018-12-27T07:09:05.315Z,4.44
2018-12-27T07:10:05.921Z,4.44
2018-12-27T07:11:05.404Z,4.44
2018-12-27T07:12:05.893Z,4.44
2018-12-27T07:13:05.442Z,4.43
2018-12-27T07:14:05.490Z,4.42
2018-12-27T07:15:05.061Z,4.42
2018-12-27T07:16:05.302Z,4.42
2018-12-27T07:17:05.313Z,4.42
2018-12-27T07:18:05.231Z,4.42
2018-12-27T07:19:05.078Z,4.42
2018-12-27T07:20:05.244Z,4.41
2018-12-27T07:21:05.896Z,4.41
2018-12-27T07:22:05.340Z,4.42
2018-12-27T07:23:05.517Z,4.41
2018-12-27T07:24:05.358Z,4.41
2018-12-27T07:25:05.175Z,4.4
2018-12-27T07:26:05.607Z,4.4
2018-12-27T07:27:05.373Z,4.38
2018-12-27T07:28:05.286Z,4.38
2018-12-27T07:29:05.612Z,4.39
2018-12-27T07:30:05.243Z,4.39
2018-12-27T07:31:05.285Z,4.38
2018-12-27T07:32:05.061Z,4.38
2018-12-27T07:33:05.340Z,4.39
2018-12-27T07:34:05.220Z,4.39
2018-12-27T07:35:05.402Z,4.39
2018-12-27T07:36:05.237Z,4.42
2018-12-27T07:37:05.879Z,4.44
2018-12-27T07:38:05.373Z,4.41
2018-12-27T07:39:05.242Z,4.41
2018-12-27T07:40:05.617Z,4.41
2018-12-27T07:41:05.008Z,4.41
2018-12-27T07:42:05.344Z,4.42
2018-12-27T07:43:05.850Z,4.42
2018-12-27T07:44:05.415Z,4.42
2018-12-27T07:45:05.123Z,4.42
2018-12-27T07:46:11.359Z,4.41
2018-12-27T07:47:05.975Z,4.4
2018-12-27T07:48:05.024Z,4.4
2018-12-27T07:49:05.460Z,4.4
2018-12-27T07:50:05.062Z,4.39
2018-12-27T07:51:05.125Z,4.38
2018-12-27T07:52:05.325Z,4.38
2018-12-27T07:53:05.144Z,4.39
2018-12-27T07:54:05.556Z,4.39
2018-12-27T07:55:05.019Z,4.38
2018-12-27T07:56:05.267Z,4.37
2018-12-27T07:57:05.117Z,4.38
2018-12-27T07:58:05.279Z,4.38
2018-12-27T07:59:05.416Z,4.38
2018-12-27T08:00:05.219Z,4.38
2018-12-27T08:01:05.355Z,4.38
2018-12-27T08:02:05.277Z,4.36
2018-12-27T08:03:05.033Z,4.35
2018-12-27T08:04:05.089Z,4.35
2018-12-27T08:05:05.261Z,4.37
2018-12-27T08:06:05.315Z,4.37
2018-12-27T08:07:05.209Z,4.35
2018-12-27T08:08:05.471Z,4.34
2018-12-27T08:09:05.392Z,4.31
2018-12-27T08:10:05.324Z,4.32
2018-12-27T08:11:05.438Z,4.34
2018-12-27T08:12:04.993Z,4.35
2018-12-27T08:13:05.474Z,4.35
2018-12-27T08:14:05.011Z,4.32
2018-12-27T08:15:05.829Z,4.32
2018-12-27T08:16:04.965Z,4.32
2018-12-27T08:17:04.976Z,4.33
2018-12-27T08:18:05.449Z,4.34
2018-12-27T08:19:05.052Z,4.33
2018-12-27T08:20:05.283Z,4.34
2018-12-27T08:21:05.164Z,4.34
2018-12-27T08:22:05.197Z,4.33
2018-12-27T08:23:05.128Z,4.32
2018-12-27T08:24:05.214Z,4.33
2018-12-27T08:25:05.141Z,4.33
2018-12-27T08:26:04.960Z,4.35
2018-12-27T08:27:05.179Z,4.34
2018-12-27T08:28:05.111Z,4.34
2018-12-27T08:29:05.017Z,4.34
2018-12-27T08:30:05.097Z,4.33
2018-12-27T08:31:04.993Z,4.32
2018-12-27T08:32:05.150Z,4.32
2018-12-27T08:33:05.008Z,4.34
2018-12-27T08:34:05.135Z,4.35
2018-12-27T08:35:11.963Z,4.34
2018-12-27T08:36:05.146Z,4.33
2018-12-27T08:37:05.115Z,4.33
2018-12-27T08:38:05.154Z,4.32
2018-12-27T08:39:05.262Z,4.32
2018-12-27T08:40:04.927Z,4.34
2018-12-27T08:41:05.115Z,4.31
2018-12-27T08:42:05.803Z,4.3
2018-12-27T08:43:05.096Z,4.32
2018-12-27T08:44:05.145Z,4.34
2018-12-27T08:45:05.170Z,4.35
2018-12-27T08:46:05.071Z,4.36
2018-12-27T08:47:05.338Z,4.34
2018-12-27T08:48:05.297Z,4.37
2018-12-27T08:49:05.169Z,4.38
2018-12-27T08:50:05.054Z,4.37
2018-12-27T08:51:05.129Z,4.38
2018-12-27T08:52:05.035Z,4.37
2018-12-27T08:53:04.918Z,4.38
2018-12-27T08:54:05.245Z,4.38
2018-12-27T08:55:04.964Z,4.39
2018-12-27T08:56:05.102Z,4.38
2018-12-27T08:57:05.106Z,4.37
2018-12-27T08:58:05.150Z,4.36
2018-12-27T08:59:05.178Z,4.36
2018-12-27T09:00:05.010Z,4.36
2018-12-27T09:01:05.186Z,4.36
2018-12-27T09:02:04.972Z,4.34
2018-12-27T09:03:05.312Z,4.35
2018-12-27T09:04:04.937Z,4.37
2018-12-27T09:05:05.160Z,4.35
2018-12-27T09:06:04.897Z,4.37
2018-12-27T09:07:05.060Z,4.37
2018-12-27T09:08:04.941Z,4.38
2018-12-27T09:09:05.138Z,4.39
2018-12-27T09:10:05.116Z,4.36
2018-12-27T09:11:04.914Z,4.36
2018-12-27T09:12:05.285Z,4.37
2018-12-27T09:13:05.220Z,4.36
2018-12-27T09:14:05.131Z,4.38
2018-12-27T09:15:05.302Z,4.36
2018-12-27T09:16:04.904Z,4.37
2018-12-27T09:17:05.103Z,4.37
2018-12-27T09:18:04.949Z,4.31
2018-12-27T09:19:05.105Z,4.34
2018-12-27T09:20:05.243Z,4.35
2018-12-27T09:21:05.106Z,4.34
2018-12-27T09:22:04.927Z,4.36
2018-12-27T09:23:04.875Z,4.37
2018-12-27T09:24:05.390Z,4.37
2018-12-27T09:25:05.172Z,4.39
2018-12-27T09:26:05.040Z,4.38
2018-12-27T09:27:05.068Z,4.37
2018-12-27T09:28:04.909Z,4.39
2018-12-27T09:29:05.142Z,4.4
2018-12-27T09:30:05.176Z,4.41
2018-12-27T09:31:04.975Z,4.42
2018-12-27T09:32:05.158Z,4.4
2018-12-27T09:33:04.908Z,4.4
2018-12-27T09:34:04.855Z,4.4
2018-12-27T09:35:05.120Z,4.41
2018-12-27T09:36:04.893Z,4.4
2018-12-27T09:37:05.092Z,4.39
2018-12-27T09:38:05.024Z,4.4
2018-12-27T09:39:05.022Z,4.4
2018-12-27T09:40:04.972Z,4.37
2018-12-27T09:41:06.138Z,4.38
2018-12-27T09:42:04.916Z,4.38
2018-12-27T09:43:04.938Z,4.38
2018-12-27T09:44:04.931Z,4.4
2018-12-27T09:45:04.852Z,4.39
2018-12-27T09:46:05.065Z,4.39
2018-12-27T09:47:04.873Z,4.4
2018-12-27T09:48:05.131Z,4.38
2018-12-27T09:49:05.115Z,4.34
2018-12-27T09:50:04.906Z,4.37
2018-12-27T09:51:05.356Z,4.38
2018-12-27T09:52:05.135Z,4.37
2018-12-27T09:53:05.117Z,4.36
2018-12-27T09:54:05.205Z,4.38
2018-12-27T09:55:05.198Z,4.35
2018-12-27T09:56:05.410Z,4.37
2018-12-27T09:57:04.886Z,4.36
2018-12-27T09:58:05.099Z,4.38
2018-12-27T09:59:05.126Z,4.39
2018-12-27T10:00:04.836Z,4.36
2018-12-27T10:01:08.105Z,4.37
2018-12-27T10:02:04.829Z,4.37
2018-12-27T10:03:05.527Z,4.39
2018-12-27T10:04:04.833Z,4.39
2018-12-27T10:05:05.236Z,4.41
2018-12-27T10:06:04.944Z,4.42
2018-12-27T10:07:05.113Z,4.44
2018-12-27T10:08:05.958Z,4.43
2018-12-27T10:09:04.902Z,4.42
2018-12-27T10:10:06.013Z,4.44
2018-12-27T10:11:04.882Z,4.39
2018-12-27T10:12:04.851Z,4.36
2018-12-27T10:13:04.880Z,4.38
2018-12-27T10:14:04.860Z,4.39
2018-12-27T10:15:05.205Z,4.38
2018-12-27T10:16:05.039Z,4.39
2018-12-27T10:17:04.850Z,4.4
2018-12-27T10:18:07.994Z,4.4
2018-12-27T10:19:04.899Z,4.4
2018-12-27T10:20:04.829Z,4.4
2018-12-27T10:21:05.171Z,4.38
2018-12-27T10:22:04.947Z,4.39
2018-12-27T10:23:05.548Z,4.39
2018-12-27T10:24:05.178Z,4.4
2018-12-27T10:25:04.905Z,4.4
2018-12-27T10:26:04.845Z,4.4
2018-12-27T10:27:05.609Z,4.42
2018-12-27T10:28:04.806Z,4.4
2018-12-27T10:29:04.907Z,4.42
2018-12-27T10:30:05.239Z,4.41
2018-12-27T10:31:04.920Z,4.43
2018-12-27T10:32:06.194Z,4.41
2018-12-27T10:33:04.996Z,4.41
2018-12-27T10:34:05.854Z,4.41
2018-12-27T10:35:04.843Z,4.41
2018-12-27T10:36:04.914Z,4.41
2018-12-27T10:37:08.340Z,4.41
2018-12-27T10:38:05.887Z,4.39
2018-12-27T10:39:05.882Z,4.39
2018-12-27T10:40:05.593Z,4.4
2018-12-27T10:41:05.023Z,4.4
2018-12-27T10:42:05.059Z,4.41
2018-12-27T10:43:05.587Z,4.41
2018-12-27T10:44:04.816Z,4.4
2018-12-27T10:45:04.882Z,4.41
2018-12-27T10:46:05.621Z,4.42
2018-12-27T10:47:05.152Z,4.41
2018-12-27T10:48:06.050Z,4.39
2018-12-27T10:49:04.907Z,4.42
2018-12-27T10:50:04.811Z,4.42
2018-12-27T10:51:04.800Z,4.42
2018-12-27T10:52:04.795Z,4.41
2018-12-27T10:53:04.746Z,4.37
2018-12-27T10:54:04.887Z,4.4
2018-12-27T10:55:04.844Z,4.42
2018-12-27T10:56:05.204Z,4.42
2018-12-27T10:57:04.775Z,4.37
2018-12-27T10:58:04.910Z,4.37
2018-12-27T10:59:04.791Z,4.38
2018-12-27T11:00:04.798Z,4.39
2018-12-27T11:01:04.811Z,4.39
2018-12-27T11:02:04.793Z,4.39
2018-12-27T11:03:04.998Z,4.4
2018-12-27T11:04:04.849Z,4.42
2018-12-27T11:05:04.786Z,4.41
2018-12-27T11:06:04.874Z,4.42
2018-12-27T11:07:04.745Z,4.43
2018-12-27T11:08:04.776Z,4.45
2018-12-27T11:09:04.762Z,4.44
2018-12-27T11:10:04.746Z,4.43
2018-12-27T11:11:04.829Z,4.42
2018-12-27T11:12:04.927Z,4.41
2018-12-27T11:13:04.961Z,4.43
2018-12-27T11:14:04.924Z,4.44
2018-12-27T11:15:05.050Z,4.43
2018-12-27T11:16:04.782Z,4.44
2018-12-27T11:17:04.815Z,4.43
2018-12-27T11:18:04.860Z,4.46
2018-12-27T11:19:04.987Z,4.44
2018-12-27T11:20:04.737Z,4.38
2018-12-27T11:21:04.702Z,4.4
2018-12-27T11:22:04.974Z,4.38
2018-12-27T11:23:04.731Z,4.4
2018-12-27T11:24:04.749Z,4.37
2018-12-27T11:25:04.709Z,4.37
2018-12-27T11:26:04.886Z,4.39
2018-12-27T11:27:04.860Z,4.4
2018-12-27T11:28:04.676Z,4.4
2018-12-27T11:29:04.835Z,4.41
2018-12-27T11:30:04.764Z,4.42
2018-12-27T11:31:04.819Z,4.4
2018-12-27T11:32:05.065Z,4.4
2018-12-27T11:33:04.987Z,4.42
2018-12-27T11:34:04.665Z,4.4
2018-12-27T11:35:04.723Z,4.41
2018-12-27T11:36:05.369Z,4.39
2018-12-27T11:37:06.359Z,4.39
2018-12-27T11:38:04.837Z,4.41
2018-12-27T11:39:05.075Z,4.4
2018-12-27T11:40:05.085Z,4.42
2018-12-27T11:41:05.090Z,4.43
2018-12-27T11:42:05.204Z,4.45
2018-12-27T11:43:04.999Z,4.42
2018-12-27T11:44:04.791Z,4.41
2018-12-27T11:45:04.866Z,4.4
2018-12-27T11:46:04.933Z,4.41
2018-12-27T11:47:04.912Z,4.4
2018-12-27T11:48:04.994Z,4.4
2018-12-27T11:49:04.680Z,4.43
2018-12-27T11:50:04.883Z,4.41
2018-12-27T11:51:04.958Z,4.44
2018-12-27T11:52:04.887Z,4.43
2018-12-27T11:53:04.632Z,4.44
2018-12-27T11:54:05.075Z,4.43
2018-12-27T11:55:04.782Z,4.44
2018-12-27T11:56:04.698Z,4.44
2018-12-27T11:57:04.851Z,4.44
2018-12-27T11:58:04.863Z,4.44
2018-12-27T11:59:04.778Z,4.43
2018-12-27T12:00:04.775Z,4.43
2018-12-27T12:01:04.738Z,4.43
2018-12-27T12:02:04.791Z,4.45
2018-12-27T12:03:05.154Z,4.43
2018-12-27T12:04:04.943Z,4.42
2018-12-27T12:05:04.692Z,4.42
2018-12-27T12:06:05.117Z,4.45
2018-12-27T12:07:04.704Z,4.44
2018-12-27T12:08:04.885Z,4.43
2018-12-27T12:09:04.725Z,4.39
2018-12-27T12:10:04.938Z,4.43
2018-12-27T12:11:04.749Z,4.41
2018-12-27T12:12:04.911Z,4.44
2018-12-27T12:13:04.720Z,4.43
2018-12-27T12:14:05.039Z,4.44
2018-12-27T12:15:04.963Z,4.43
2018-12-27T12:16:04.907Z,4.44
2018-12-27T12:17:05.324Z,4.45
2018-12-27T12:18:04.848Z,4.46
2018-12-27T12:19:04.655Z,4.44
2018-12-27T12:20:04.846Z,4.44
2018-12-27T12:21:04.819Z,4.42
2018-12-27T12:22:04.653Z,4.44
2018-12-27T12:23:04.896Z,4.44
2018-12-27T12:24:04.872Z,4.43
2018-12-27T12:25:04.741Z,4.43
2018-12-27T12:26:04.730Z,4.43
2018-12-27T12:27:04.757Z,4.43
2018-12-27T12:28:05.063Z,4.44
2018-12-27T12:29:05.013Z,4.42
2018-12-27T12:30:04.747Z,4.42
2018-12-27T12:31:05.125Z,4.41
2018-12-27T12:32:04.775Z,4.41
2018-12-27T12:33:04.767Z,4.41
2018-12-27T12:34:05.034Z,4.42
2018-12-27T12:35:04.741Z,4.41
2018-12-27T12:36:11.264Z,4.41
2018-12-27T12:37:04.628Z,4.41
2018-12-27T12:38:04.620Z,4.41
2018-12-27T12:39:04.649Z,4.38
2018-12-27T12:40:04.655Z,4.37
2018-12-27T12:41:04.711Z,4.38
2018-12-27T12:42:04.814Z,4.4
2018-12-27T12:43:04.708Z,4.39
2018-12-27T12:44:04.725Z,4.38
2018-12-27T12:45:04.753Z,4.38
2018-12-27T12:46:04.653Z,4.4
2018-12-27T12:47:04.620Z,4.4
2018-12-27T12:48:04.617Z,4.4
2018-12-27T12:49:04.658Z,4.41
2018-12-27T12:50:04.621Z,4.41
2018-12-27T12:51:04.602Z,4.42
2018-12-27T12:52:04.709Z,4.43
2018-12-27T12:53:04.612Z,4.43
2018-12-27T12:54:05.020Z,4.44
2018-12-27T12:55:04.766Z,4.45
2018-12-27T12:56:05.255Z,4.43
2018-12-27T12:57:04.600Z,4.43
2018-12-27T12:58:04.691Z,4.41
2018-12-27T12:59:04.622Z,4.43
2018-12-27T13:00:05.000Z,4.38
2018-12-27T13:01:04.819Z,4.39
2018-12-27T13:02:05.031Z,4.39
2018-12-27T13:03:05.039Z,4.41
2018-12-27T13:04:04.698Z,4.41
2018-12-27T13:05:04.851Z,4.4
2018-12-27T13:06:05.044Z,4.41
2018-12-27T13:07:05.162Z,4.43
2018-12-27T13:08:05.073Z,4.43
2018-12-27T13:09:05.114Z,4.42
2018-12-27T13:10:04.852Z,4.42
2018-12-27T13:11:04.632Z,4.42
2018-12-27T13:12:05.369Z,4.41
2018-12-27T13:13:05.396Z,4.44
2018-12-27T13:14:04.572Z,4.44
2018-12-27T13:15:04.746Z,4.41
2018-12-27T13:16:04.860Z,4.44
2018-12-27T13:17:04.623Z,4.45
2018-12-27T13:18:04.631Z,4.44
2018-12-27T13:19:04.877Z,4.43
2018-12-27T13:20:04.785Z,4.45
2018-12-27T13:21:04.611Z,4.46